Home > Products > Valid Products > MTR

000
SAUS46 KSGX 010653
MTRCZZ
METAR KCZZ 010652Z AUTO 04004KT 13/11 A2990 RMK AO1 SLP095 T01280106





000
SAUS46 KSGX 312353
MTRCZZ
METAR KCZZ 312352Z AUTO 22014KT 24/13 A2983 RMK AO1 SLP075 T02440133
10267 20239 58004





000
SAUS46 KSGX 311753
MTRCZZ
METAR KCZZ 311752Z AUTO 23009KT 25/11 A2986 RMK AO1 SLP084 T02500106
10250 20067 58004





000
SAUS46 KSGX 311653
MTRCZZ
METAR KCZZ 311652Z AUTO 22007KT 22/11 A2987 RMK AO1 SLP086 T02220106





000
SAUS46 KSGX 311153
MTRCZZ
METAR KCZZ 311152Z AUTO 00000KT 08/07 A2986 RMK AO1 SLP087 T00830067
10128 20078 55004





000
SAUS46 KSGX 310554
MTRCZZ
METAR KCZZ 310552Z AUTO 03003KT 12/09 A2992 RMK AO1 SLP105 T01170089
10261 20117 50002





000
SAUS46 KSGX 302253
MTRCZZ
METAR KCZZ 302252Z AUTO 21014KT 27/12 A2989 RMK AO1 SLP093 T02670122





000
SAUS46 KSGX 302153
MTRCZZ
METAR KCZZ 302152Z AUTO 22016KT 26/12 A2990 RMK AO1 SLP096 T02560117





000
SAUS46 KSGX 301753
MTRCZZ
METAR KCZZ 301752Z AUTO 22008KT 21/10 A2996 RMK AO1 SLP117 T02110100
10211 20122 58011





000
SAUS46 KSGX 301453
MTRCZZ
METAR KCZZ 301452Z AUTO 03004KT 13/09 A2999 RMK AO1 SLP136 T01330094
53009





000
SAUS46 KSGX 301254
MTRCZZ
METAR KCZZ 301252Z AUTO 24003KT 12/10 A2997 RMK AO1 SLP126 T01220100





000
SAUS46 KSGX 301054
MTRCZZ
METAR KCZZ 301052Z AUTO 21003KT 13/11 A2996 RMK AO1 SLP121 T01280106





000
SAUS46 KSGX 300954
MTRCZZ
METAR KCZZ 300952Z AUTO 22005KT 13/11 A2997 RMK AO1 SLP125 T01280106





000
SAUS46 KSGX 300453
MTRCZZ
METAR KCZZ 300452Z AUTO 22003KT 14/11 A2999 RMK AO1 SLP133 T01390111





000
SAUS46 KSGX 300354
MTRCZZ
METAR KCZZ 300352Z AUTO 22003KT 14/12 A2998 RMK AO1 SLP132 T01390117





000
SAUS46 KSGX 292353
MTRCZZ
METAR KCZZ 292352Z AUTO 25009G17KT 19/12 A2994 RMK AO1 SLP114
T01890122 10211 20178 55005





    US Dept of Commerce
    National Oceanic and Atmospheric Administration
    National Weather Service
    1325 East West Highway
    Silver Spring, MD 20910
    Page Author: NWS Internet Services Team
Disclaimer
Information Quality
Credits
Glossary
Privacy Policy
Freedom of Information Act (FOIA)
About Us
Career Opportunities